Time;durP1;ratioP1;P1;durP2;ratioP2;P2;SDS_P1;SDS_P2;PMS_P1;PMS_P2;Temp;Humidity;BMP_temperature;BMP_pressure;BME280_temperature;BME280_humidity;BME280_pressure;Samples;Min_cycle;Max_cycle;Signal;HPM_P1;HPM_P2
2023/02/26 00:02:01;;;;;;;7.00;1.42;;;;;;;-0.38;99.78;100701.16;6155299;23;20620;-71
2023/02/26 00:04:31;;;;;;;2.10;0.95;;;;;;;-0.39;99.52;100706.63;6155312;23;20173;-72
2023/02/26 00:07:01;;;;;;;3.05;1.40;;;;;;;-0.44;99.13;100707.84;6155052;23;20284;-70
2023/02/26 00:09:30;;;;;;;3.13;1.52;;;;;;;-0.47;99.58;100716.13;6156816;23;20186;-70
2023/02/26 00:12:00;;;;;;;3.80;1.75;;;;;;;-0.40;99.50;100720.91;6155018;23;20173;-70
2023/02/26 00:14:30;;;;;;;6.35;1.85;;;;;;;-0.40;100.00;100720.91;6155012;23;20165;-69
2023/02/26 00:17:31;;;;;;;6.50;1.73;;;;;;;-0.39;99.42;100717.25;6154545;23;20276;-70
2023/02/26 00:20:02;;;;;;;1.85;1.45;;;;;;;-0.30;99.16;100727.06;6154867;23;20191;-69
2023/02/26 00:22:32;;;;;;;4.07;1.35;;;;;;;-0.39;99.09;100734.06;6154917;23;20177;-71
2023/02/26 00:25:01;;;;;;;3.40;1.65;;;;;;;-0.32;99.12;100737.00;6156023;23;20634;-70
2023/02/26 00:27:30;;;;;;;5.65;1.70;;;;;;;-0.29;98.65;100739.41;6156145;23;20197;-70
2023/02/26 00:30:00;;;;;;;2.72;1.25;;;;;;;-0.25;98.37;100751.44;6155418;23;20193;-69
2023/02/26 00:32:30;;;;;;;2.13;1.45;;;;;;;-0.24;97.81;100751.28;6155641;23;20176;-69
2023/02/26 00:35:02;;;;;;;2.70;1.58;;;;;;;-0.36;98.45;100754.22;6156810;23;20170;-69
2023/02/26 00:37:46;;;;;;;4.18;1.60;;;;;;;-0.28;98.14;100757.00;6155559;23;20204;-70
2023/02/26 00:40:21;;;;;;;1.75;1.25;;;;;;;-0.26;98.06;100768.38;6156863;23;20196;-70
2023/02/26 00:42:52;;;;;;;4.50;2.33;;;;;;;-0.19;97.75;100770.34;6155464;23;20541;-69
2023/02/26 00:45:22;;;;;;;3.47;1.33;;;;;;;-0.21;96.67;100768.81;6157308;23;20164;-71
2023/02/26 00:47:57;;;;;;;1.70;1.15;;;;;;;-0.17;96.69;100770.22;6157363;23;20708;-71
2023/02/26 00:50:29;;;;;;;1.65;1.00;;;;;;;-0.23;97.29;100773.41;6155122;23;20189;-70
2023/02/26 00:53:08;;;;;;;6.43;1.23;;;;;;;-0.18;97.61;100771.19;6156323;23;20173;-71
2023/02/26 00:55:38;;;;;;;1.00;0.85;;;;;;;-0.14;96.93;100776.09;6158263;23;20161;-71
2023/02/26 00:58:07;;;;;;;5.60;2.45;;;;;;;-0.09;96.62;100783.66;6156290;23;20182;-71
2023/02/26 01:00:36;;;;;;;3.58;1.08;;;;;;;-0.04;95.53;100770.78;6155649;23;20172;-69
2023/02/26 01:03:06;;;;;;;5.38;1.33;;;;;;;-0.09;95.59;100779.19;6130180;23;20181;-70
2023/02/26 01:05:38;;;;;;;1.50;1.10;;;;;;;-0.03;95.06;100785.78;6130368;23;20161;-69
2023/02/26 01:08:15;;;;;;;1.67;1.15;;;;;;;-0.11;95.83;100790.94;6130083;23;20276;-70
2023/02/26 01:10:45;;;;;;;1.30;0.93;;;;;;;-0.06;95.28;100788.72;6130556;23;20235;-69
2023/02/26 01:13:14;;;;;;;2.72;0.88;;;;;;;0.00;94.77;100790.84;6156581;23;20177;-69
2023/02/26 01:15:50;;;;;;;3.13;1.70;;;;;;;-0.04;95.12;100786.75;6130370;23;20178;-71
2023/02/26 01:18:25;;;;;;;6.15;1.65;;;;;;;-0.06;94.42;100799.38;6156846;23;20630;-70
2023/02/26 01:21:03;;;;;;;1.67;1.10;;;;;;;0.03;94.82;100790.56;6130642;23;20541;-69
2023/02/26 01:23:38;;;;;;;1.17;0.77;;;;;;;0.04;94.27;100796.72;6131145;23;20170;-70
2023/02/26 01:26:12;;;;;;;2.85;1.15;;;;;;;0.00;94.39;100806.81;6155255;23;20249;-69
2023/02/26 01:28:43;;;;;;;3.63;1.45;;;;;;;0.02;94.40;100802.19;6129684;23;20191;-70
2023/02/26 01:31:26;;;;;;;6.97;1.50;;;;;;;0.00;93.35;100802.31;6130243;23;20269;-70
2023/02/26 01:34:02;;;;;;;4.75;1.50;;;;;;;0.07;93.49;100802.59;6129978;23;20261;-71
2023/02/26 01:36:40;;;;;;;2.53;1.98;;;;;;;0.04;92.90;100805.56;6129728;23;20196;-69
2023/02/26 01:39:17;;;;;;;1.70;0.82;;;;;;;0.13;93.08;100804.72;6132857;23;20169;-70
2023/02/26 01:41:49;;;;;;;2.45;1.20;;;;;;;0.14;92.79;100806.41;6160721;23;20161;-70
2023/02/26 01:44:26;;;;;;;2.15;1.15;;;;;;;0.09;92.68;100805.16;6134142;23;20174;-70
2023/02/26 01:47:04;;;;;;;2.75;1.70;;;;;;;0.09;92.77;100807.81;6129327;23;20216;-69
2023/02/26 01:49:35;;;;;;;1.52;0.98;;;;;;;0.03;91.63;100814.50;6129618;23;20278;-69
2023/02/26 01:52:07;;;;;;;1.58;1.02;;;;;;;0.06;92.41;100819.53;6155462;23;20162;-71
2023/02/26 01:54:38;;;;;;;4.38;1.10;;;;;;;0.06;92.05;100814.22;6155758;23;20574;-70
2023/02/26 01:57:11;;;;;;;3.03;1.50;;;;;;;0.06;92.41;100819.53;6143672;23;20200;-70
2023/02/26 01:59:43;;;;;;;2.95;1.13;;;;;;;0.05;91.93;100828.50;6154187;23;20511;-69
2023/02/26 02:02:16;;;;;;;3.45;1.00;;;;;;;0.13;92.13;100833.16;6179090;23;20173;-70
2023/02/26 02:04:46;;;;;;;3.88;1.40;;;;;;;0.25;91.39;100832.03;6154158;23;20515;-71
2023/02/26 02:07:18;;;;;;;1.95;0.90;;;;;;;0.26;90.50;100836.41;6154408;23;20195;-70
2023/02/26 02:09:47;;;;;;;1.88;0.73;;;;;;;0.25;90.49;100838.22;6154336;23;20268;-70
2023/02/26 02:12:28;;;;;;;1.98;1.00;;;;;;;0.20;90.42;100845.75;6154536;23;20556;-69
2023/02/26 02:15:10;;;;;;;5.00;0.90;;;;;;;0.15;90.33;100837.34;6158092;23;20196;-70
2023/02/26 02:17:50;;;;;;;3.50;0.98;;;;;;;0.06;90.60;100848.81;6158616;23;20208;-69
2023/02/26 02:20:44;;;;;;;3.90;1.02;;;;;;;0.13;91.17;100855.28;6156940;23;20223;-70
2023/02/26 02:23:24;;;;;;;2.90;1.17;;;;;;;0.13;90.04;100862.44;6153844;23;20519;-70
2023/02/26 02:26:31;;;;;;;2.22;0.70;;;;;;;0.08;90.62;100865.50;6153645;23;20173;-70
2023/02/26 02:29:23;;;;;;;3.15;1.38;;;;;;;0.21;90.01;100871.41;6153669;23;20215;-69
2023/02/26 02:31:58;;;;;;;5.68;1.23;;;;;;;0.23;89.50;100874.78;6130211;23;20205;-69
2023/02/26 02:34:36;;;;;;;1.73;0.90;;;;;;;0.21;89.06;100870.56;6154066;23;20192;-69
2023/02/26 02:37:13;;;;;;;1.73;0.70;;;;;;;0.22;88.82;100881.09;6153293;23;20190;-69
2023/02/26 02:39:47;;;;;;;4.93;1.45;;;;;;;0.24;89.11;100881.75;6153454;23;20192;-70
2023/02/26 02:42:25;;;;;;;2.72;1.05;;;;;;;0.21;89.84;100891.84;6153769;23;20216;-70
2023/02/26 02:44:59;;;;;;;1.95;1.00;;;;;;;0.18;88.98;100890.31;6153521;23;20310;-69
2023/02/26 02:47:35;;;;;;;1.90;1.00;;;;;;;0.17;88.87;100888.63;6153442;23;20197;-69
2023/02/26 02:50:12;;;;;;;1.77;0.82;;;;;;;0.13;89.47;100889.88;6153668;23;20533;-69
2023/02/26 02:52:46;;;;;;;2.65;0.70;;;;;;;0.11;89.42;100891.81;6153839;23;20177;-70
2023/02/26 02:55:20;;;;;;;6.22;1.25;;;;;;;0.15;88.88;100898.56;6156893;23;20157;-70
2023/02/26 02:57:56;;;;;;;3.83;1.10;;;;;;;-0.02;89.77;100902.72;6155518;23;20758;-71
2023/02/26 03:00:28;;;;;;;2.17;1.20;;;;;;;0.00;89.62;100899.94;6154440;23;20165;-70
2023/02/26 03:03:06;;;;;;;2.28;1.10;;;;;;;-0.06;89.58;100897.78;6154541;23;20170;-67
2023/02/26 03:05:36;;;;;;;1.30;0.70;;;;;;;-0.16;90.30;100897.75;6154486;23;21013;-70
2023/02/26 03:08:10;;;;;;;1.42;0.90;;;;;;;-0.09;90.25;100911.34;6157506;23;20237;-70
2023/02/26 03:10:40;;;;;;;6.25;0.95;;;;;;;-0.07;90.00;100914.72;6156763;23;20195;-71
2023/02/26 03:13:16;;;;;;;5.90;1.25;;;;;;;-0.03;90.55;100910.81;6156001;23;20251;-69
2023/02/26 03:16:08;;;;;;;2.38;0.85;;;;;;;-0.02;89.89;100917.81;6155000;23;20248;-69
2023/02/26 03:18:52;;;;;;;5.47;0.80;;;;;;;-0.04;90.14;100922.44;6153961;23;20195;-70
2023/02/26 03:21:31;;;;;;;5.03;1.10;;;;;;;-0.04;90.44;100925.94;6153588;23;20181;-70
2023/02/26 03:24:09;;;;;;;2.53;0.90;;;;;;;0.00;90.29;100934.50;6153314;23;20629;-70
2023/02/26 03:26:43;;;;;;;1.60;1.27;;;;;;;-0.06;90.90;100940.34;6153193;23;20192;-68
2023/02/26 03:29:25;;;;;;;2.97;1.80;;;;;;;-0.05;90.49;100928.75;6153352;23;20184;-70
2023/02/26 03:31:58;;;;;;;8.13;1.52;;;;;;;-0.10;90.84;100941.59;6153090;23;20550;-69
2023/02/26 03:34:35;;;;;;;3.08;0.80;;;;;;;-0.09;90.73;100951.25;6153091;23;20185;-69
2023/02/26 03:37:12;;;;;;;1.50;0.93;;;;;;;-0.05;91.16;100955.34;6153212;23;20256;-70
2023/02/26 03:39:45;;;;;;;4.30;1.00;;;;;;;-0.14;91.01;100962.28;6153746;23;20626;-71
2023/02/26 03:42:23;;;;;;;1.40;0.65;;;;;;;-0.10;91.02;100962.88;6178127;23;20158;-70
2023/02/26 03:45:01;;;;;;;5.40;1.25;;;;;;;-0.01;90.87;100962.94;6153699;23;20255;-70
2023/02/26 03:47:32;;;;;;;1.75;0.80;;;;;;;0.02;91.19;100971.59;6156248;23;20193;-71
2023/02/26 03:50:07;;;;;;;1.20;0.75;;;;;;;0.04;91.16;100980.31;6153972;23;20176;-69
2023/02/26 03:52:49;;;;;;;2.80;0.65;;;;;;;0.07;90.68;100990.69;6154791;23;20517;-70
2023/02/26 03:55:35;;;;;;;3.10;1.02;;;;;;;0.08;90.61;100985.22;6155270;23;20177;-69
2023/02/26 03:58:24;;;;;;;3.25;1.40;;;;;;;0.03;90.16;100997.25;6156123;23;20208;-70
2023/02/26 04:01:12;;;;;;;2.92;1.45;;;;;;;0.05;90.24;100998.78;6154880;23;20210;-70
2023/02/26 04:03:47;;;;;;;3.67;1.10;;;;;;;0.08;89.61;100998.53;6155165;23;20270;-69
2023/02/26 04:06:19;;;;;;;3.08;1.23;;;;;;;0.05;90.44;101003.28;6155202;23;20178;-69
2023/02/26 04:08:48;;;;;;;1.45;0.95;;;;;;;0.10;90.00;101006.41;6162065;23;20165;-71
2023/02/26 04:11:20;;;;;;;1.40;0.85;;;;;;;0.14;89.85;101013.13;6156410;23;20237;-71
2023/02/26 04:13:50;;;;;;;3.67;0.93;;;;;;;0.08;89.47;101014.50;6155741;23;20225;-71
2023/02/26 04:16:19;;;;;;;4.38;0.90;;;;;;;0.16;90.07;101022.66;6156658;23;20209;-71
2023/02/26 04:18:49;;;;;;;8.38;1.42;;;;;;;0.11;89.53;101022.22;6156118;23;20569;-70
2023/02/26 04:21:22;;;;;;;2.60;0.80;;;;;;;0.27;89.88;101030.56;6155852;23;20637;-70
2023/02/26 04:23:51;;;;;;;2.25;1.33;;;;;;;0.31;89.45;101031.97;6155568;23;20521;-69
2023/02/26 04:26:21;;;;;;;1.05;0.60;;;;;;;0.34;89.34;101042.34;6154993;23;20301;-69
2023/02/26 04:28:51;;;;;;;1.35;0.70;;;;;;;0.22;88.96;101030.13;6156479;23;20520;-69
2023/02/26 04:31:20;;;;;;;1.77;0.85;;;;;;;0.19;88.36;101033.06;6156240;23;20659;-70
2023/02/26 04:33:50;;;;;;;1.55;0.90;;;;;;;0.14;87.97;101029.09;6155719;23;20177;-69
2023/02/26 04:36:21;;;;;;;1.30;0.80;;;;;;;0.15;87.92;101041.41;6155309;23;20260;-69
2023/02/26 04:38:50;;;;;;;2.28;1.10;;;;;;;0.18;87.78;101046.47;6155381;23;20184;-70
2023/02/26 04:41:20;;;;;;;3.42;0.90;;;;;;;0.25;87.83;101048.47;6155186;23;20229;-69
2023/02/26 04:43:50;;;;;;;4.32;0.90;;;;;;;0.10;87.48;101054.28;6155315;23;20169;-69
2023/02/26 04:46:24;;;;;;;7.50;0.88;;;;;;;0.28;86.72;101053.56;6154960;23;20169;-70
2023/02/26 04:48:55;;;;;;;1.90;0.90;;;;;;;0.23;86.28;101052.25;6155246;23;20668;-70
2023/02/26 04:51:26;;;;;;;2.80;1.08;;;;;;;0.30;86.55;101062.22;6179888;23;20197;-70
2023/02/26 04:53:55;;;;;;;2.83;0.90;;;;;;;0.23;86.01;101061.09;6154776;23;20173;-70
2023/02/26 04:56:24;;;;;;;2.38;1.65;;;;;;;0.23;85.94;101076.22;6154597;23;20680;-71
2023/02/26 04:58:54;;;;;;;1.35;1.15;;;;;;;0.23;85.80;101071.75;6156314;23;20153;-70
2023/02/26 05:01:29;;;;;;;2.85;1.27;;;;;;;0.19;85.75;101065.00;6157145;23;20206;-71
2023/02/26 05:04:00;;;;;;;2.05;1.40;;;;;;;0.23;86.08;101077.06;6154936;23;20167;-70
2023/02/26 05:06:31;;;;;;;1.23;0.80;;;;;;;0.23;85.87;101082.38;6154259;23;20536;-69
2023/02/26 05:09:01;;;;;;;1.52;0.82;;;;;;;0.26;85.76;101081.25;6155290;23;20272;-70
2023/02/26 05:11:31;;;;;;;1.90;0.90;;;;;;;0.31;85.28;101089.69;6156404;23;20655;-70
2023/02/26 05:14:01;;;;;;;3.17;0.98;;;;;;;0.41;84.49;101093.25;6156220;23;20578;-69
2023/02/26 05:16:30;;;;;;;1.13;0.70;;;;;;;0.36;84.60;101101.66;6163408;23;20721;-69
2023/02/26 05:18:59;;;;;;;1.92;1.05;;;;;;;0.33;84.73;101114.38;6169832;23;20255;-71
2023/02/26 05:21:30;;;;;;;2.10;1.33;;;;;;;0.35;84.66;101102.59;6159524;23;20162;-70
2023/02/26 05:24:00;;;;;;;3.20;1.15;;;;;;;0.42;84.15;101102.94;6156600;23;20261;-70
2023/02/26 05:26:31;;;;;;;1.23;0.70;;;;;;;0.37;83.44;101105.16;6160912;23;20241;-71
2023/02/26 05:29:00;;;;;;;2.85;1.02;;;;;;;0.40;84.31;101120.84;6161624;23;20170;-71
2023/02/26 05:31:30;;;;;;;1.65;1.02;;;;;;;0.35;84.02;101126.56;6158306;23;20182;-70
2023/02/26 05:33:59;;;;;;;6.38;0.88;;;;;;;0.36;83.51;101125.59;6154459;23;20573;-70
2023/02/26 05:36:30;;;;;;;1.70;1.00;;;;;;;0.30;83.92;101126.13;6154291;23;20194;-68
2023/02/26 05:38:59;;;;;;;3.45;1.27;;;;;;;0.40;83.46;101127.03;6154787;23;20173;-71
2023/02/26 05:41:28;;;;;;;1.85;0.90;;;;;;;0.44;82.91;101132.91;6154742;23;20228;-70
2023/02/26 05:43:57;;;;;;;3.05;1.40;;;;;;;0.31;82.99;101133.13;6155639;23;20166;-71
2023/02/26 05:46:27;;;;;;;6.03;0.90;;;;;;;0.31;83.05;101140.28;6154644;23;20271;-69
2023/02/26 05:48:57;;;;;;;1.50;1.00;;;;;;;0.37;82.62;101143.28;6154764;23;20174;-70
2023/02/26 05:51:27;;;;;;;3.20;1.10;;;;;;;0.33;83.10;101141.00;6154816;23;20178;-70
2023/02/26 05:53:58;;;;;;;1.40;0.85;;;;;;;0.32;83.16;101144.63;6179919;23;20178;-71
2023/02/26 05:56:27;;;;;;;4.10;1.00;;;;;;;0.28;82.30;101154.69;6155121;23;20236;-69
2023/02/26 05:58:56;;;;;;;1.00;0.75;;;;;;;0.33;83.18;101160.47;6129449;23;20190;-70
2023/02/26 06:01:25;;;;;;;1.80;1.20;;;;;;;0.33;81.71;101157.81;6154159;23;20173;-69
2023/02/26 06:03:54;;;;;;;4.50;1.38;;;;;;;0.34;81.97;101164.81;6130268;23;20169;-70
2023/02/26 06:06:25;;;;;;;2.40;0.90;;;;;;;0.37;82.73;101169.03;6129187;23;20221;-70
2023/02/26 06:08:55;;;;;;;1.80;0.85;;;;;;;0.39;82.20;101177.72;6154024;23;20253;-70
2023/02/26 06:11:26;;;;;;;1.65;1.38;;;;;;;0.37;81.63;101175.22;6129316;23;20201;-71
2023/02/26 06:13:55;;;;;;;1.60;0.95;;;;;;;0.36;81.95;101178.00;6133362;23;20168;-71
2023/02/26 06:16:25;;;;;;;3.28;1.27;;;;;;;0.41;82.19;101178.47;6159390;23;20264;-72
2023/02/26 06:18:54;;;;;;;2.50;1.15;;;;;;;0.39;81.92;101180.38;6132080;23;20205;-73
2023/02/26 06:21:24;;;;;;;5.15;1.40;;;;;;;0.44;81.53;101192.34;6131653;23;20220;-71
2023/02/26 06:23:53;;;;;;;2.95;1.20;;;;;;;0.46;81.51;101194.03;6131408;23;20499;-71
2023/02/26 06:26:23;;;;;;;1.35;0.80;;;;;;;0.39;81.56;101194.56;6156893;23;20176;-70
2023/02/26 06:28:53;;;;;;;2.25;0.90;;;;;;;0.44;80.58;101195.00;6159357;23;20559;-71
2023/02/26 06:31:22;;;;;;;2.75;2.25;;;;;;;0.48;81.32;101208.09;6133843;23;20514;-72
2023/02/26 06:33:52;;;;;;;1.52;0.93;;;;;;;0.54;80.72;101208.38;6134869;23;20185;-70
2023/02/26 06:36:21;;;;;;;6.40;1.25;;;;;;;0.55;80.49;101214.56;6134776;23;20166;-71
2023/02/26 06:38:50;;;;;;;1.10;0.70;;;;;;;0.59;79.93;101210.66;6133800;23;20170;-70
2023/02/26 06:41:19;;;;;;;2.10;0.90;;;;;;;0.76;79.44;101220.72;6133090;23;20184;-72
2023/02/26 06:43:48;;;;;;;1.30;0.80;;;;;;;0.66;79.43;101228.66;6133490;23;20191;-71
2023/02/26 06:46:19;;;;;;;2.40;1.15;;;;;;;0.65;80.04;101228.78;6134740;23;20177;-71
2023/02/26 06:48:48;;;;;;;3.72;1.00;;;;;;;0.71;79.13;101231.78;6158226;23;20526;-71
2023/02/26 06:51:17;;;;;;;2.28;0.80;;;;;;;0.65;78.38;101236.78;6133485;23;20224;-72
2023/02/26 06:53:46;;;;;;;2.95;1.00;;;;;;;0.69;78.70;101241.72;6131178;23;20217;-70
2023/02/26 06:56:15;;;;;;;7.05;1.20;;;;;;;0.84;78.67;101243.06;6133545;23;20519;-71
2023/02/26 06:58:44;;;;;;;2.97;0.95;;;;;;;0.87;78.19;101248.13;6155419;23;20201;-71
2023/02/26 07:01:13;;;;;;;2.50;0.88;;;;;;;0.98;77.04;101254.34;6153965;23;20174;-70
2023/02/26 07:03:44;;;;;;;2.50;0.80;;;;;;;0.84;77.62;101263.53;6154329;23;20162;-72
2023/02/26 07:06:14;;;;;;;6.78;1.50;;;;;;;0.88;79.11;101270.28;6154259;23;20162;-71
2023/02/26 07:08:56;;;;;;;1.13;0.80;;;;;;;0.63;78.16;101262.72;6155695;23;20500;-70
2023/02/26 07:11:25;;;;;;;1.13;0.80;;;;;;;0.53;78.50;101275.09;6154164;23;20176;-70
2023/02/26 07:13:55;;;;;;;2.67;0.95;;;;;;;0.40;79.48;101277.94;6153978;23;20659;-71
2023/02/26 07:16:24;;;;;;;1.67;1.15;;;;;;;0.41;79.88;101284.94;6155080;23;20169;-71
2023/02/26 07:18:55;;;;;;;3.80;3.40;;;;;;;0.37;79.78;101296.84;6155562;23;20166;-71
2023/02/26 07:21:24;;;;;;;2.45;2.25;;;;;;;0.41;79.59;101299.13;6154164;23;20173;-72
2023/02/26 07:23:53;;;;;;;1.50;0.93;;;;;;;0.40;79.95;101296.56;6154585;23;20242;-71
2023/02/26 07:26:23;;;;;;;2.95;1.40;;;;;;;0.52;79.67;101298.22;6155449;23;20178;-71
2023/02/26 07:28:52;;;;;;;2.95;1.45;;;;;;;0.61;79.03;101300.13;6157025;23;20176;-71
2023/02/26 07:31:21;;;;;;;2.75;1.88;;;;;;;0.76;78.86;101300.66;6156142;23;20162;-72
2023/02/26 07:33:51;;;;;;;2.17;1.17;;;;;;;0.81;78.71;101312.63;6156068;23;20582;-71
2023/02/26 07:36:22;;;;;;;5.28;4.80;;;;;;;0.83;77.85;101307.13;6156489;23;20224;-71
2023/02/26 07:38:51;;;;;;;2.97;1.13;;;;;;;1.00;77.82;101319.03;6156475;23;20679;-72
2023/02/26 07:41:20;;;;;;;3.72;1.58;;;;;;;1.10;77.30;101320.81;6156840;23;20175;-71
2023/02/26 07:43:50;;;;;;;1.88;1.50;;;;;;;1.10;76.07;101318.13;6157105;23;20225;-71
2023/02/26 07:46:20;;;;;;;4.05;3.65;;;;;;;1.08;76.59;101330.75;6157369;23;20717;-72
2023/02/26 07:48:49;;;;;;;4.55;3.70;;;;;;;1.11;76.37;101333.16;6157043;23;20170;-72
2023/02/26 07:51:18;;;;;;;5.18;2.40;;;;;;;0.97;76.62;101332.66;6158591;23;20166;-71
2023/02/26 07:53:49;;;;;;;2.60;1.55;;;;;;;0.84;77.18;101340.81;6157766;23;20189;-72
2023/02/26 07:56:18;;;;;;;2.65;1.50;;;;;;;0.79;77.43;101343.84;6156376;23;20192;-73
2023/02/26 07:58:47;;;;;;;3.38;1.30;;;;;;;1.03;77.58;101343.63;6156882;23;20273;-73
2023/02/26 08:01:16;;;;;;;3.17;1.40;;;;;;;1.03;76.20;101348.94;6157140;23;20178;-70
2023/02/26 08:03:45;;;;;;;3.28;2.50;;;;;;;1.12;75.93;101353.50;6160414;23;20174;-71
2023/02/26 08:06:15;;;;;;;2.05;1.50;;;;;;;1.20;76.04;101359.03;6157602;23;20178;-71
2023/02/26 08:08:44;;;;;;;2.58;1.55;;;;;;;1.26;75.15;101366.47;6159602;23;20174;-72
2023/02/26 08:11:14;;;;;;;4.05;1.95;;;;;;;1.36;75.89;101371.03;6157878;23;20175;-72
2023/02/26 08:13:44;;;;;;;2.85;2.65;;;;;;;1.42;74.94;101365.19;6157988;23;20182;-72
2023/02/26 08:16:13;;;;;;;8.07;1.60;;;;;;;1.53;74.94;101373.97;6158003;23;20174;-71
2023/02/26 08:18:42;;;;;;;3.08;2.78;;;;;;;1.54;73.11;101377.47;6158757;23;20249;-72
2023/02/26 08:21:12;;;;;;;5.40;1.83;;;;;;;1.53;74.57;101383.78;6158918;23;20232;-72
2023/02/26 08:23:41;;;;;;;2.92;2.65;;;;;;;1.58;73.34;101378.91;6157528;23;20493;-71
2023/02/26 08:26:16;;;;;;;2.42;1.67;;;;;;;1.55;74.38;101377.31;6155588;23;20175;-70
2023/02/26 08:28:46;;;;;;;3.63;2.55;;;;;;;1.61;73.84;101395.47;6160339;23;20225;-70
2023/02/26 08:31:17;;;;;;;1.83;1.50;;;;;;;1.56;72.97;101391.50;6156546;23;20217;-72
2023/02/26 08:33:46;;;;;;;1.50;1.00;;;;;;;1.54;72.98;101390.81;6156741;23;20182;-71
2023/02/26 08:36:16;;;;;;;5.22;4.40;;;;;;;1.62;73.50;101393.66;6158067;23;20158;-69
2023/02/26 08:38:45;;;;;;;4.55;3.05;;;;;;;1.83;72.78;101396.28;6156540;23;20179;-71
2023/02/26 08:41:16;;;;;;;3.55;2.10;;;;;;;1.80;72.10;101401.88;6156168;23;20262;-71
2023/02/26 08:43:45;;;;;;;2.85;2.55;;;;;;;1.91;72.73;101402.66;6155421;23;20636;-72
2023/02/26 08:46:15;;;;;;;1.02;0.90;;;;;;;1.82;72.33;101406.13;6156932;23;20190;-71
2023/02/26 08:48:44;;;;;;;1.85;1.33;;;;;;;1.87;72.43;101408.38;6155553;23;20663;-71
2023/02/26 08:51:13;;;;;;;1.90;1.00;;;;;;;2.05;72.87;101418.28;6155447;23;20178;-71
2023/02/26 08:53:44;;;;;;;1.67;1.10;;;;;;;2.08;71.95;101426.03;6155086;23;20194;-71
2023/02/26 08:56:14;;;;;;;3.00;0.95;;;;;;;2.16;70.99;101420.88;6154989;23;20530;-70
2023/02/26 08:58:44;;;;;;;3.67;1.10;;;;;;;2.31;70.17;101423.16;6154791;23;20166;-70
2023/02/26 09:01:13;;;;;;;1.45;0.80;;;;;;;2.48;70.25;101423.34;6154905;23;20174;-71
2023/02/26 09:03:42;;;;;;;2.28;1.23;;;;;;;2.37;68.04;101423.44;6156690;23;20608;-70
2023/02/26 09:06:12;;;;;;;5.97;1.48;;;;;;;2.18;69.12;101434.91;6154339;23;20175;-73
2023/02/26 09:08:41;;;;;;;10.50;6.15;;;;;;;2.19;69.77;101436.63;6154754;23;20166;-70
2023/02/26 09:11:10;;;;;;;6.57;2.45;;;;;;;2.52;69.46;101431.94;6156012;23;20247;-69
2023/02/26 09:13:41;;;;;;;17.50;5.20;;;;;;;2.57;68.31;101445.72;6154357;23;20186;-71
2023/02/26 09:16:11;;;;;;;3.20;2.00;;;;;;;2.53;67.89;101446.97;6156161;23;20151;-70
2023/02/26 09:18:40;;;;;;;1.52;0.70;;;;;;;2.43;67.19;101465.66;6154638;23;20623;-71
2023/02/26 09:21:09;;;;;;;3.92;2.10;;;;;;;2.21;68.16;101459.69;6154359;23;20225;-69
2023/02/26 09:23:39;;;;;;;1.98;1.50;;;;;;;2.39;67.77;101464.25;6154996;23;20166;-71
2023/02/26 09:26:08;;;;;;;4.68;1.25;;;;;;;2.53;68.49;101471.88;6154884;23;20174;-71
2023/02/26 09:28:38;;;;;;;4.30;1.90;;;;;;;2.50;67.45;101476.66;6154151;23;20174;-69
2023/02/26 09:31:09;;;;;;;4.18;1.55;;;;;;;2.41;68.42;101482.81;6154411;23;20245;-71
2023/02/26 09:33:38;;;;;;;6.47;2.40;;;;;;;2.38;67.65;101485.72;6154332;23;20266;-71
2023/02/26 09:36:07;;;;;;;3.25;1.08;;;;;;;2.23;68.11;101479.09;6154106;23;20575;-70
2023/02/26 09:38:37;;;;;;;1.83;1.17;;;;;;;2.23;68.31;101489.78;6154513;23;20519;-70
2023/02/26 09:41:09;;;;;;;3.92;1.23;;;;;;;2.36;66.85;101493.06;6154268;23;20162;-71
2023/02/26 09:44:07;;;;;;;2.65;0.90;;;;;;;2.37;66.72;101497.41;6154233;23;20170;-70
2023/02/26 09:46:48;;;;;;;1.55;1.20;;;;;;;2.38;66.87;101507.09;6156912;23;20195;-71
2023/02/26 09:49:29;;;;;;;1.75;0.90;;;;;;;2.53;66.24;101508.44;6163668;23;20681;-71
2023/02/26 09:52:04;;;;;;;1.38;0.80;;;;;;;2.70;64.91;101509.63;6156495;23;20483;-69
2023/02/26 09:54:40;;;;;;;5.75;4.20;;;;;;;2.77;63.90;101516.94;6154869;23;20713;-70
2023/02/26 09:57:17;;;;;;;7.43;6.80;;;;;;;3.19;63.01;101519.44;6154095;23;20516;-69
2023/02/26 09:59:46;;;;;;;2.70;1.80;;;;;;;3.19;62.32;101519.44;6154487;23;20336;-70
2023/02/26 10:02:22;;;;;;;6.32;3.30;;;;;;;2.78;62.61;101524.00;6154261;23;20249;-70
2023/02/26 10:05:01;;;;;;;2.22;0.90;;;;;;;2.78;62.02;101518.66;6155230;23;20162;-70
2023/02/26 10:07:37;;;;;;;2.95;1.00;;;;;;;2.86;62.92;101521.47;6156928;23;20660;-70
2023/02/26 10:10:18;;;;;;;1.95;1.20;;;;;;;3.09;62.51;101522.09;6154691;23;20170;-70
2023/02/26 10:12:49;;;;;;;2.03;1.92;;;;;;;3.18;62.27;101526.59;6158171;23;20221;-71
2023/02/26 10:15:22;;;;;;;2.22;1.95;;;;;;;3.04;62.73;101525.19;6154587;23;20260;-69
2023/02/26 10:18:12;;;;;;;2.20;0.80;;;;;;;2.70;62.59;101542.53;6154527;23;20217;-70
2023/02/26 10:20:50;;;;;;;2.13;1.10;;;;;;;2.54;63.13;101542.19;6154676;23;20166;-70
2023/02/26 10:23:26;;;;;;;2.30;1.40;;;;;;;2.61;62.92;101533.47;6154478;23;20224;-70
2023/02/26 10:26:07;;;;;;;5.20;1.65;;;;;;;2.78;62.34;101540.03;6155792;23;20607;-70
2023/02/26 10:28:45;;;;;;;2.35;1.00;;;;;;;3.07;61.74;101545.44;6153946;23;20170;-70
2023/02/26 10:31:26;;;;;;;1.70;1.10;;;;;;;3.00;60.75;101545.13;6153792;23;20220;-71
2023/02/26 10:34:11;;;;;;;2.42;1.27;;;;;;;3.10;58.75;101545.16;6154204;23;20177;-72
2023/02/26 10:36:48;;;;;;;3.10;1.65;;;;;;;3.10;58.39;101553.19;6153796;23;20191;-71
2023/02/26 10:39:28;;;;;;;1.98;1.73;;;;;;;2.95;59.32;101557.25;6154062;23;20174;-71
2023/02/26 10:42:02;;;;;;;3.38;1.25;;;;;;;3.47;59.60;101558.72;6154167;23;20174;-71
2023/02/26 10:44:40;;;;;;;2.13;0.70;;;;;;;3.60;55.76;101559.28;6153738;23;20163;-68
2023/02/26 10:47:25;;;;;;;2.47;0.80;;;;;;;4.07;55.87;101562.06;6155422;23;20190;-70
2023/02/26 10:50:06;;;;;;;2.70;1.02;;;;;;;3.99;55.55;101559.25;6155751;23;20171;-70
2023/02/26 10:52:49;;;;;;;1.50;0.68;;;;;;;3.66;53.79;101564.09;6153864;23;20201;-71
2023/02/26 10:55:43;;;;;;;2.47;0.80;;;;;;;3.41;54.25;101564.63;6153846;23;20192;-71
2023/02/26 10:58:20;;;;;;;1.58;1.10;;;;;;;3.65;54.60;101573.09;6155976;23;20216;-72
2023/02/26 11:01:01;;;;;;;1.13;0.73;;;;;;;3.89;54.11;101573.50;6155646;23;20203;-70
2023/02/26 11:03:39;;;;;;;4.40;0.80;;;;;;;3.74;53.79;101572.25;6156124;23;20170;-70
2023/02/26 11:06:25;;;;;;;1.40;0.90;;;;;;;3.58;54.25;101577.34;6180153;23;20244;-69
2023/02/26 11:09:00;;;;;;;1.80;0.80;;;;;;;3.31;55.08;101574.47;6155914;23;20170;-68
2023/02/26 11:11:43;;;;;;;3.25;1.58;;;;;;;3.68;54.12;101578.16;6157535;23;20491;-70
2023/02/26 11:14:20;;;;;;;3.78;1.20;;;;;;;3.96;52.66;101571.13;6157439;23;20161;-72
2023/02/26 11:17:26;;;;;;;1.75;1.17;;;;;;;4.16;53.89;101590.69;6181744;23;20272;-71
2023/02/26 11:20:15;;;;;;;2.95;0.90;;;;;;;4.25;54.42;101589.81;6156667;23;20175;-70
2023/02/26 11:22:55;;;;;;;1.25;0.60;;;;;;;4.22;54.72;101582.88;6156571;23;20204;-71
2023/02/26 11:25:42;;;;;;;2.47;1.20;;;;;;;4.02;55.40;101586.59;6157955;23;20151;-70
2023/02/26 11:28:24;;;;;;;3.63;1.40;;;;;;;3.77;55.85;101593.41;6155425;23;20276;-71
2023/02/26 11:30:56;;;;;;;3.60;1.40;;;;;;;3.56;56.31;101599.84;6157029;23;20245;-70
2023/02/26 11:33:39;;;;;;;3.08;1.10;;;;;;;3.54;56.06;101597.31;6156688;23;20174;-69
2023/02/26 11:36:15;;;;;;;4.20;2.45;;;;;;;3.59;54.88;101603.09;6155546;23;20193;-70
2023/02/26 11:38:57;;;;;;;1.58;1.10;;;;;;;3.68;53.58;101596.88;6155506;23;20181;-70
2023/02/26 11:41:30;;;;;;;1.70;0.82;;;;;;;4.07;52.52;101604.91;6155658;23;20216;-70
2023/02/26 11:44:10;;;;;;;2.88;1.30;;;;;;;4.34;50.72;101607.69;6155823;23;20154;-71
2023/02/26 11:46:47;;;;;;;1.33;0.70;;;;;;;4.69;49.78;101607.88;6155135;23;20194;-72
2023/02/26 11:49:27;;;;;;;1.10;0.75;;;;;;;4.31;52.17;101616.00;6157570;23;20610;-70
2023/02/26 11:52:17;;;;;;;3.70;0.90;;;;;;;4.34;52.80;101618.41;6154975;23;20183;-71
2023/02/26 11:55:00;;;;;;;2.03;1.10;;;;;;;3.74;52.87;101614.22;6131154;23;20197;-70
2023/02/26 12:00:41;;;;;;;1.55;0.70;;;;;;;3.38;53.20;101624.63;6130418;23;20230;-69
2023/02/26 12:03:30;;;;;;;12.20;3.75;;;;;;;3.43;53.23;101627.75;6106738;23;20170;-71
2023/02/26 12:06:07;;;;;;;3.47;3.08;;;;;;;3.38;52.69;101619.28;6130244;23;20167;-71